sensor_id;sensor_type;location;lat;lon;timestamp;P1;durP1;ratioP1;P2;durP2;ratioP2
3589;SDS011;1809;48.470;9.226;2022-11-20T00:01:59;1.83;;;1.73;;
3589;SDS011;1809;48.470;9.226;2022-11-20T00:04:24;2.43;;;1.77;;
3589;SDS011;1809;48.470;9.226;2022-11-20T00:06:50;3.90;;;2.07;;
3589;SDS011;1809;48.470;9.226;2022-11-20T00:09:15;1.60;;;1.50;;
3589;SDS011;1809;48.470;9.226;2022-11-20T00:11:40;2.00;;;1.90;;
3589;SDS011;1809;48.470;9.226;2022-11-20T00:14:06;2.00;;;1.60;;
3589;SDS011;1809;48.470;9.226;2022-11-20T00:16:31;5.93;;;2.60;;
3589;SDS011;1809;48.470;9.226;2022-11-20T00:18:58;2.20;;;2.00;;
3589;SDS011;1809;48.470;9.226;2022-11-20T00:21:25;3.47;;;2.33;;
3589;SDS011;1809;48.470;9.226;2022-11-20T00:23:51;3.10;;;2.60;;
3589;SDS011;1809;48.470;9.226;2022-11-20T00:26:19;4.83;;;2.63;;
3589;SDS011;1809;48.470;9.226;2022-11-20T00:28:49;2.40;;;2.23;;
3589;SDS011;1809;48.470;9.226;2022-11-20T00:31:17;2.80;;;2.53;;
3589;SDS011;1809;48.470;9.226;2022-11-20T00:33:43;12.33;;;2.73;;
3589;SDS011;1809;48.470;9.226;2022-11-20T00:36:09;3.50;;;2.80;;
3589;SDS011;1809;48.470;9.226;2022-11-20T00:38:36;2.67;;;2.47;;
3589;SDS011;1809;48.470;9.226;2022-11-20T00:41:03;2.67;;;2.47;;
3589;SDS011;1809;48.470;9.226;2022-11-20T00:43:30;4.37;;;2.90;;
3589;SDS011;1809;48.470;9.226;2022-11-20T00:46:06;3.67;;;2.60;;
3589;SDS011;1809;48.470;9.226;2022-11-20T00:48:33;2.70;;;2.50;;
3589;SDS011;1809;48.470;9.226;2022-11-20T00:50:58;2.67;;;2.47;;
3589;SDS011;1809;48.470;9.226;2022-11-20T00:53:23;4.30;;;3.50;;
3589;SDS011;1809;48.470;9.226;2022-11-20T00:55:58;4.50;;;3.80;;
3589;SDS011;1809;48.470;9.226;2022-11-20T00:58:28;3.97;;;3.67;;
3589;SDS011;1809;48.470;9.226;2022-11-20T01:01:02;4.90;;;3.40;;
3589;SDS011;1809;48.470;9.226;2022-11-20T01:03:31;4.13;;;3.83;;
3589;SDS011;1809;48.470;9.226;2022-11-20T01:06:16;4.90;;;3.80;;
3589;SDS011;1809;48.470;9.226;2022-11-20T01:08:46;4.50;;;4.10;;
3589;SDS011;1809;48.470;9.226;2022-11-20T01:11:13;4.33;;;3.90;;
3589;SDS011;1809;48.470;9.226;2022-11-20T01:13:40;4.87;;;4.17;;
3589;SDS011;1809;48.470;9.226;2022-11-20T01:16:13;3.83;;;3.43;;
3589;SDS011;1809;48.470;9.226;2022-11-20T01:18:41;5.60;;;3.87;;
3589;SDS011;1809;48.470;9.226;2022-11-20T01:21:09;3.43;;;3.00;;
3589;SDS011;1809;48.470;9.226;2022-11-20T01:23:40;3.50;;;3.20;;
3589;SDS011;1809;48.470;9.226;2022-11-20T01:26:09;4.23;;;3.53;;
3589;SDS011;1809;48.470;9.226;2022-11-20T01:28:36;4.93;;;3.30;;
3589;SDS011;1809;48.470;9.226;2022-11-20T01:31:02;3.57;;;3.20;;
3589;SDS011;1809;48.470;9.226;2022-11-20T01:33:39;2.90;;;2.73;;
3589;SDS011;1809;48.470;9.226;2022-11-20T01:36:06;3.23;;;3.00;;
3589;SDS011;1809;48.470;9.226;2022-11-20T01:38:32;3.90;;;3.50;;
3589;SDS011;1809;48.470;9.226;2022-11-20T01:40:57;3.40;;;3.10;;
3589;SDS011;1809;48.470;9.226;2022-11-20T01:43:23;3.67;;;2.87;;
3589;SDS011;1809;48.470;9.226;2022-11-20T01:46:00;6.70;;;3.10;;
3589;SDS011;1809;48.470;9.226;2022-11-20T01:51:28;3.40;;;3.07;;
3589;SDS011;1809;48.470;9.226;2022-11-20T01:54:00;4.73;;;3.70;;
3589;SDS011;1809;48.470;9.226;2022-11-20T01:56:27;3.87;;;2.77;;
3589;SDS011;1809;48.470;9.226;2022-11-20T01:58:56;2.37;;;2.23;;
3589;SDS011;1809;48.470;9.226;2022-11-20T02:01:25;2.20;;;2.10;;
3589;SDS011;1809;48.470;9.226;2022-11-20T02:03:51;2.90;;;2.70;;
3589;SDS011;1809;48.470;9.226;2022-11-20T02:06:23;2.60;;;2.40;;
3589;SDS011;1809;48.470;9.226;2022-11-20T02:08:51;2.10;;;1.97;;
3589;SDS011;1809;48.470;9.226;2022-11-20T02:11:17;3.60;;;1.97;;
3589;SDS011;1809;48.470;9.226;2022-11-20T02:13:43;2.23;;;2.07;;
3589;SDS011;1809;48.470;9.226;2022-11-20T02:16:09;1.73;;;1.60;;
3589;SDS011;1809;48.470;9.226;2022-11-20T02:18:36;2.10;;;2.00;;
3589;SDS011;1809;48.470;9.226;2022-11-20T02:21:12;3.03;;;2.20;;
3589;SDS011;1809;48.470;9.226;2022-11-20T02:24:09;1.60;;;1.50;;
3589;SDS011;1809;48.470;9.226;2022-11-20T02:26:41;1.80;;;1.70;;
3589;SDS011;1809;48.470;9.226;2022-11-20T02:29:19;1.73;;;1.63;;
3589;SDS011;1809;48.470;9.226;2022-11-20T02:31:51;2.00;;;1.90;;
3589;SDS011;1809;48.470;9.226;2022-11-20T02:34:19;2.00;;;1.53;;
3589;SDS011;1809;48.470;9.226;2022-11-20T02:36:45;2.90;;;1.57;;
3589;SDS011;1809;48.470;9.226;2022-11-20T02:39:11;2.20;;;2.10;;
3589;SDS011;1809;48.470;9.226;2022-11-20T02:41:38;4.50;;;1.43;;
3589;SDS011;1809;48.470;9.226;2022-11-20T02:44:04;7.53;;;2.10;;
3589;SDS011;1809;48.470;9.226;2022-11-20T02:46:31;1.60;;;1.50;;
3589;SDS011;1809;48.470;9.226;2022-11-20T02:48:57;1.80;;;1.70;;
3589;SDS011;1809;48.470;9.226;2022-11-20T02:51:23;1.50;;;1.30;;
3589;SDS011;1809;48.470;9.226;2022-11-20T02:53:48;1.53;;;1.40;;
3589;SDS011;1809;48.470;9.226;2022-11-20T02:56:14;1.67;;;1.57;;
3589;SDS011;1809;48.470;9.226;2022-11-20T02:58:40;2.43;;;1.70;;
3589;SDS011;1809;48.470;9.226;2022-11-20T03:01:05;1.80;;;1.70;;
3589;SDS011;1809;48.470;9.226;2022-11-20T03:03:30;2.40;;;1.77;;
3589;SDS011;1809;48.470;9.226;2022-11-20T03:05:58;1.67;;;1.57;;
3589;SDS011;1809;48.470;9.226;2022-11-20T03:08:24;1.60;;;1.43;;
3589;SDS011;1809;48.470;9.226;2022-11-20T03:10:49;1.23;;;1.20;;
3589;SDS011;1809;48.470;9.226;2022-11-20T03:13:15;5.53;;;1.63;;
3589;SDS011;1809;48.470;9.226;2022-11-20T03:15:40;2.00;;;1.87;;
3589;SDS011;1809;48.470;9.226;2022-11-20T03:18:05;1.63;;;1.53;;
3589;SDS011;1809;48.470;9.226;2022-11-20T03:20:31;4.17;;;1.87;;
3589;SDS011;1809;48.470;9.226;2022-11-20T03:22:58;2.27;;;1.83;;
3589;SDS011;1809;48.470;9.226;2022-11-20T03:25:23;1.80;;;1.70;;
3589;SDS011;1809;48.470;9.226;2022-11-20T03:27:49;1.80;;;1.70;;
3589;SDS011;1809;48.470;9.226;2022-11-20T03:30:14;2.33;;;1.90;;
3589;SDS011;1809;48.470;9.226;2022-11-20T03:32:40;1.93;;;1.83;;
3589;SDS011;1809;48.470;9.226;2022-11-20T03:35:05;2.40;;;1.40;;
3589;SDS011;1809;48.470;9.226;2022-11-20T03:37:31;5.30;;;2.57;;
3589;SDS011;1809;48.470;9.226;2022-11-20T03:39:57;1.70;;;1.60;;
3589;SDS011;1809;48.470;9.226;2022-11-20T03:42:22;2.27;;;2.17;;
3589;SDS011;1809;48.470;9.226;2022-11-20T03:45:06;2.23;;;1.87;;
3589;SDS011;1809;48.470;9.226;2022-11-20T03:47:32;2.70;;;1.87;;
3589;SDS011;1809;48.470;9.226;2022-11-20T03:49:57;3.43;;;1.80;;
3589;SDS011;1809;48.470;9.226;2022-11-20T03:52:23;8.53;;;2.57;;
3589;SDS011;1809;48.470;9.226;2022-11-20T03:54:48;1.70;;;1.60;;
3589;SDS011;1809;48.470;9.226;2022-11-20T03:57:13;1.90;;;1.80;;
3589;SDS011;1809;48.470;9.226;2022-11-20T03:59:39;1.93;;;1.83;;
3589;SDS011;1809;48.470;9.226;2022-11-20T04:02:04;1.80;;;1.70;;
3589;SDS011;1809;48.470;9.226;2022-11-20T04:04:29;1.77;;;1.67;;
3589;SDS011;1809;48.470;9.226;2022-11-20T04:06:55;1.50;;;1.40;;
3589;SDS011;1809;48.470;9.226;2022-11-20T04:09:20;2.00;;;1.90;;
3589;SDS011;1809;48.470;9.226;2022-11-20T04:11:45;2.10;;;2.00;;
3589;SDS011;1809;48.470;9.226;2022-11-20T04:14:12;4.03;;;1.50;;
3589;SDS011;1809;48.470;9.226;2022-11-20T04:16:39;2.50;;;1.93;;
3589;SDS011;1809;48.470;9.226;2022-11-20T04:19:08;2.77;;;1.73;;
3589;SDS011;1809;48.470;9.226;2022-11-20T04:21:36;2.20;;;2.00;;
3589;SDS011;1809;48.470;9.226;2022-11-20T04:24:01;1.70;;;1.60;;
3589;SDS011;1809;48.470;9.226;2022-11-20T04:26:27;1.80;;;1.70;;
3589;SDS011;1809;48.470;9.226;2022-11-20T04:28:53;2.13;;;1.93;;
3589;SDS011;1809;48.470;9.226;2022-11-20T04:31:20;4.40;;;2.20;;
3589;SDS011;1809;48.470;9.226;2022-11-20T04:33:47;1.83;;;1.73;;
3589;SDS011;1809;48.470;9.226;2022-11-20T04:36:17;1.90;;;1.77;;
3589;SDS011;1809;48.470;9.226;2022-11-20T04:38:52;3.60;;;1.60;;
3589;SDS011;1809;48.470;9.226;2022-11-20T04:41:20;1.50;;;1.40;;
3589;SDS011;1809;48.470;9.226;2022-11-20T04:43:47;1.73;;;1.63;;
3589;SDS011;1809;48.470;9.226;2022-11-20T04:46:13;5.63;;;1.63;;
3589;SDS011;1809;48.470;9.226;2022-11-20T04:48:39;1.40;;;1.30;;
3589;SDS011;1809;48.470;9.226;2022-11-20T04:51:04;1.03;;;1.03;;
3589;SDS011;1809;48.470;9.226;2022-11-20T04:53:30;4.93;;;1.20;;
3589;SDS011;1809;48.470;9.226;2022-11-20T04:56:02;4.93;;;1.80;;
3589;SDS011;1809;48.470;9.226;2022-11-20T04:58:29;1.30;;;1.27;;
3589;SDS011;1809;48.470;9.226;2022-11-20T05:03:30;1.20;;;1.00;;
3589;SDS011;1809;48.470;9.226;2022-11-20T05:05:56;1.90;;;1.10;;
3589;SDS011;1809;48.470;9.226;2022-11-20T05:08:24;2.93;;;1.40;;
3589;SDS011;1809;48.470;9.226;2022-11-20T05:10:49;1.40;;;1.20;;
3589;SDS011;1809;48.470;9.226;2022-11-20T05:13:14;1.17;;;1.07;;
3589;SDS011;1809;48.470;9.226;2022-11-20T05:15:40;0.90;;;0.90;;
3589;SDS011;1809;48.470;9.226;2022-11-20T05:18:05;1.10;;;1.10;;
3589;SDS011;1809;48.470;9.226;2022-11-20T05:20:30;6.00;;;1.20;;
3589;SDS011;1809;48.470;9.226;2022-11-20T05:22:56;1.80;;;1.10;;
3589;SDS011;1809;48.470;9.226;2022-11-20T05:25:22;1.30;;;1.30;;
3589;SDS011;1809;48.470;9.226;2022-11-20T05:27:47;1.50;;;1.40;;
3589;SDS011;1809;48.470;9.226;2022-11-20T05:30:13;1.20;;;0.90;;
3589;SDS011;1809;48.470;9.226;2022-11-20T05:32:39;1.60;;;1.30;;
3589;SDS011;1809;48.470;9.226;2022-11-20T05:35:04;3.10;;;1.33;;
3589;SDS011;1809;48.470;9.226;2022-11-20T05:37:30;0.93;;;0.93;;
3589;SDS011;1809;48.470;9.226;2022-11-20T05:39:55;1.37;;;1.00;;
3589;SDS011;1809;48.470;9.226;2022-11-20T05:42:20;1.10;;;1.10;;
3589;SDS011;1809;48.470;9.226;2022-11-20T05:47:24;1.60;;;1.50;;
3589;SDS011;1809;48.470;9.226;2022-11-20T05:49:49;1.40;;;1.30;;
3589;SDS011;1809;48.470;9.226;2022-11-20T05:52:15;1.30;;;1.20;;
3589;SDS011;1809;48.470;9.226;2022-11-20T05:54:40;1.97;;;1.10;;
3589;SDS011;1809;48.470;9.226;2022-11-20T05:57:05;1.40;;;1.00;;
3589;SDS011;1809;48.470;9.226;2022-11-20T05:59:30;1.10;;;1.00;;
3589;SDS011;1809;48.470;9.226;2022-11-20T06:01:56;1.17;;;1.03;;
3589;SDS011;1809;48.470;9.226;2022-11-20T06:04:21;1.20;;;1.10;;
3589;SDS011;1809;48.470;9.226;2022-11-20T06:06:46;1.00;;;0.90;;
3589;SDS011;1809;48.470;9.226;2022-11-20T06:09:12;1.63;;;1.50;;
3589;SDS011;1809;48.470;9.226;2022-11-20T06:11:37;1.53;;;1.43;;
3589;SDS011;1809;48.470;9.226;2022-11-20T06:14:02;1.27;;;1.10;;
3589;SDS011;1809;48.470;9.226;2022-11-20T06:16:28;1.73;;;1.10;;
3589;SDS011;1809;48.470;9.226;2022-11-20T06:18:53;2.70;;;1.50;;
3589;SDS011;1809;48.470;9.226;2022-11-20T06:21:19;1.50;;;1.40;;
3589;SDS011;1809;48.470;9.226;2022-11-20T06:23:46;3.97;;;1.20;;
3589;SDS011;1809;48.470;9.226;2022-11-20T06:26:13;2.30;;;1.67;;
3589;SDS011;1809;48.470;9.226;2022-11-20T06:28:43;5.83;;;1.40;;
3589;SDS011;1809;48.470;9.226;2022-11-20T06:31:10;7.17;;;2.13;;
3589;SDS011;1809;48.470;9.226;2022-11-20T06:33:37;2.23;;;1.60;;
3589;SDS011;1809;48.470;9.226;2022-11-20T06:36:02;1.80;;;1.63;;
3589;SDS011;1809;48.470;9.226;2022-11-20T06:38:29;2.60;;;1.53;;
3589;SDS011;1809;48.470;9.226;2022-11-20T06:40:54;3.47;;;2.30;;
3589;SDS011;1809;48.470;9.226;2022-11-20T06:43:20;1.83;;;1.73;;
3589;SDS011;1809;48.470;9.226;2022-11-20T06:45:51;1.80;;;1.70;;
3589;SDS011;1809;48.470;9.226;2022-11-20T06:48:17;1.90;;;1.80;;
3589;SDS011;1809;48.470;9.226;2022-11-20T06:50:43;2.50;;;1.30;;
3589;SDS011;1809;48.470;9.226;2022-11-20T06:53:08;1.50;;;1.30;;
3589;SDS011;1809;48.470;9.226;2022-11-20T06:55:33;1.50;;;1.40;;
3589;SDS011;1809;48.470;9.226;2022-11-20T06:57:59;1.80;;;1.70;;
3589;SDS011;1809;48.470;9.226;2022-11-20T07:00:24;1.73;;;1.63;;
3589;SDS011;1809;48.470;9.226;2022-11-20T07:02:49;1.37;;;1.27;;
3589;SDS011;1809;48.470;9.226;2022-11-20T07:05:15;5.00;;;1.30;;
3589;SDS011;1809;48.470;9.226;2022-11-20T07:07:40;1.03;;;1.03;;
3589;SDS011;1809;48.470;9.226;2022-11-20T07:10:06;3.10;;;1.30;;
3589;SDS011;1809;48.470;9.226;2022-11-20T07:12:31;4.00;;;1.50;;
3589;SDS011;1809;48.470;9.226;2022-11-20T07:14:57;1.33;;;1.23;;
3589;SDS011;1809;48.470;9.226;2022-11-20T07:17:22;3.07;;;1.33;;
3589;SDS011;1809;48.470;9.226;2022-11-20T07:19:47;1.13;;;1.13;;
3589;SDS011;1809;48.470;9.226;2022-11-20T07:22:12;1.20;;;1.00;;
3589;SDS011;1809;48.470;9.226;2022-11-20T07:24:38;4.80;;;1.23;;
3589;SDS011;1809;48.470;9.226;2022-11-20T07:27:04;1.50;;;1.40;;
3589;SDS011;1809;48.470;9.226;2022-11-20T07:29:29;1.20;;;1.10;;
3589;SDS011;1809;48.470;9.226;2022-11-20T07:31:54;1.20;;;1.10;;
3589;SDS011;1809;48.470;9.226;2022-11-20T07:34:21;1.60;;;1.50;;
3589;SDS011;1809;48.470;9.226;2022-11-20T07:36:46;1.00;;;1.00;;
3589;SDS011;1809;48.470;9.226;2022-11-20T07:39:11;0.83;;;0.83;;
3589;SDS011;1809;48.470;9.226;2022-11-20T07:41:37;1.30;;;1.03;;
3589;SDS011;1809;48.470;9.226;2022-11-20T07:44:02;1.20;;;1.20;;
3589;SDS011;1809;48.470;9.226;2022-11-20T07:46:28;1.37;;;1.00;;
3589;SDS011;1809;48.470;9.226;2022-11-20T07:48:53;1.23;;;1.23;;
3589;SDS011;1809;48.470;9.226;2022-11-20T07:51:18;1.10;;;1.00;;
3589;SDS011;1809;48.470;9.226;2022-11-20T07:53:44;1.63;;;1.23;;
3589;SDS011;1809;48.470;9.226;2022-11-20T07:56:09;0.93;;;0.80;;
3589;SDS011;1809;48.470;9.226;2022-11-20T07:58:34;1.00;;;1.00;;
3589;SDS011;1809;48.470;9.226;2022-11-20T08:01:03;0.93;;;0.93;;
3589;SDS011;1809;48.470;9.226;2022-11-20T08:03:33;1.03;;;1.03;;
3589;SDS011;1809;48.470;9.226;2022-11-20T08:05:59;1.00;;;1.00;;
3589;SDS011;1809;48.470;9.226;2022-11-20T08:08:25;1.83;;;1.10;;
3589;SDS011;1809;48.470;9.226;2022-11-20T08:10:51;1.00;;;1.00;;
3589;SDS011;1809;48.470;9.226;2022-11-20T08:13:16;1.70;;;1.00;;
3589;SDS011;1809;48.470;9.226;2022-11-20T08:16:00;1.20;;;0.93;;
3589;SDS011;1809;48.470;9.226;2022-11-20T08:18:26;1.07;;;0.97;;
3589;SDS011;1809;48.470;9.226;2022-11-20T08:20:51;1.00;;;1.00;;
3589;SDS011;1809;48.470;9.226;2022-11-20T08:23:16;0.80;;;0.80;;
3589;SDS011;1809;48.470;9.226;2022-11-20T08:25:42;0.87;;;0.87;;
3589;SDS011;1809;48.470;9.226;2022-11-20T08:28:08;0.80;;;0.80;;
3589;SDS011;1809;48.470;9.226;2022-11-20T08:30:34;0.93;;;0.93;;
3589;SDS011;1809;48.470;9.226;2022-11-20T08:33:04;0.90;;;0.90;;
3589;SDS011;1809;48.470;9.226;2022-11-20T08:35:35;0.80;;;0.80;;
3589;SDS011;1809;48.470;9.226;2022-11-20T08:38:01;1.00;;;1.00;;
3589;SDS011;1809;48.470;9.226;2022-11-20T08:40:28;1.00;;;0.87;;
3589;SDS011;1809;48.470;9.226;2022-11-20T08:42:53;1.83;;;1.50;;
3589;SDS011;1809;48.470;9.226;2022-11-20T08:45:19;1.77;;;1.37;;
3589;SDS011;1809;48.470;9.226;2022-11-20T08:47:44;1.50;;;1.40;;
3589;SDS011;1809;48.470;9.226;2022-11-20T08:50:11;1.57;;;1.43;;
3589;SDS011;1809;48.470;9.226;2022-11-20T08:52:38;3.70;;;1.40;;
3589;SDS011;1809;48.470;9.226;2022-11-20T08:55:04;1.40;;;1.30;;
3589;SDS011;1809;48.470;9.226;2022-11-20T08:57:33;1.50;;;1.23;;
3589;SDS011;1809;48.470;9.226;2022-11-20T09:00:00;1.60;;;1.50;;
3589;SDS011;1809;48.470;9.226;2022-11-20T09:02:26;1.23;;;1.07;;
3589;SDS011;1809;48.470;9.226;2022-11-20T09:04:52;0.70;;;0.70;;
3589;SDS011;1809;48.470;9.226;2022-11-20T09:07:18;1.43;;;1.20;;
3589;SDS011;1809;48.470;9.226;2022-11-20T09:09:43;1.30;;;1.20;;
3589;SDS011;1809;48.470;9.226;2022-11-20T09:12:09;1.07;;;1.07;;
3589;SDS011;1809;48.470;9.226;2022-11-20T09:14:34;0.90;;;0.90;;
3589;SDS011;1809;48.470;9.226;2022-11-20T09:16:59;0.90;;;0.90;;
3589;SDS011;1809;48.470;9.226;2022-11-20T09:19:25;0.90;;;0.90;;
3589;SDS011;1809;48.470;9.226;2022-11-20T09:21:50;1.47;;;1.00;;
3589;SDS011;1809;48.470;9.226;2022-11-20T09:24:16;0.90;;;0.90;;
3589;SDS011;1809;48.470;9.226;2022-11-20T09:26:41;0.93;;;0.93;;
3589;SDS011;1809;48.470;9.226;2022-11-20T09:29:07;0.70;;;0.70;;
3589;SDS011;1809;48.470;9.226;2022-11-20T09:31:32;0.70;;;0.70;;
3589;SDS011;1809;48.470;9.226;2022-11-20T09:33:57;0.70;;;0.70;;
3589;SDS011;1809;48.470;9.226;2022-11-20T09:36:23;0.80;;;0.80;;
3589;SDS011;1809;48.470;9.226;2022-11-20T09:38:48;1.10;;;1.10;;
3589;SDS011;1809;48.470;9.226;2022-11-20T09:41:20;0.90;;;0.90;;
3589;SDS011;1809;48.470;9.226;2022-11-20T09:46:45;1.37;;;0.87;;
3589;SDS011;1809;48.470;9.226;2022-11-20T09:54:31;1.20;;;1.03;;
3589;SDS011;1809;48.470;9.226;2022-11-20T09:57:23;1.87;;;0.87;;
3589;SDS011;1809;48.470;9.226;2022-11-20T09:59:51;7.50;;;2.80;;
3589;SDS011;1809;48.470;9.226;2022-11-20T10:05:11;3.00;;;2.30;;
3589;SDS011;1809;48.470;9.226;2022-11-20T10:10:58;1.13;;;1.13;;
3589;SDS011;1809;48.470;9.226;2022-11-20T10:24:20;2.43;;;2.33;;
3589;SDS011;1809;48.470;9.226;2022-11-20T10:27:06;1.00;;;0.90;;
3589;SDS011;1809;48.470;9.226;2022-11-20T10:29:58;2.13;;;0.97;;
3589;SDS011;1809;48.470;9.226;2022-11-20T10:32:39;1.10;;;0.97;;
3589;SDS011;1809;48.470;9.226;2022-11-20T10:36:19;1.30;;;1.10;;
3589;SDS011;1809;48.470;9.226;2022-11-20T10:38:22;1.33;;;1.27;;
3589;SDS011;1809;48.470;9.226;2022-11-20T10:40:52;5.10;;;1.37;;
3589;SDS011;1809;48.470;9.226;2022-11-20T10:43:39;1.07;;;0.97;;
3589;SDS011;1809;48.470;9.226;2022-11-20T10:46:08;1.20;;;1.10;;
3589;SDS011;1809;48.470;9.226;2022-11-20T10:48:40;1.53;;;1.43;;
3589;SDS011;1809;48.470;9.226;2022-11-20T10:56:56;1.20;;;1.20;;
3589;SDS011;1809;48.470;9.226;2022-11-20T11:02:14;1.93;;;1.50;;
3589;SDS011;1809;48.470;9.226;2022-11-20T11:04:45;1.63;;;1.00;;
3589;SDS011;1809;48.470;9.226;2022-11-20T11:07:39;1.50;;;1.40;;
3589;SDS011;1809;48.470;9.226;2022-11-20T11:10:12;1.10;;;1.00;;
3589;SDS011;1809;48.470;9.226;2022-11-20T11:12:43;1.07;;;1.07;;
3589;SDS011;1809;48.470;9.226;2022-11-20T11:15:11;1.40;;;1.30;;
3589;SDS011;1809;48.470;9.226;2022-11-20T11:17:46;2.30;;;1.10;;
3589;SDS011;1809;48.470;9.226;2022-11-20T11:20:18;1.50;;;1.30;;
3589;SDS011;1809;48.470;9.226;2022-11-20T11:22:49;2.40;;;1.30;;
3589;SDS011;1809;48.470;9.226;2022-11-20T11:25:30;1.00;;;0.90;;
3589;SDS011;1809;48.470;9.226;2022-11-20T11:28:03;1.00;;;1.00;;
3589;SDS011;1809;48.470;9.226;2022-11-20T11:30:41;1.00;;;0.87;;
3589;SDS011;1809;48.470;9.226;2022-11-20T11:33:11;1.00;;;1.00;;
3589;SDS011;1809;48.470;9.226;2022-11-20T11:35:48;1.20;;;1.07;;
3589;SDS011;1809;48.470;9.226;2022-11-20T11:38:19;1.30;;;1.30;;
3589;SDS011;1809;48.470;9.226;2022-11-20T11:40:47;1.77;;;1.63;;
3589;SDS011;1809;48.470;9.226;2022-11-20T11:43:20;1.47;;;1.47;;
3589;SDS011;1809;48.470;9.226;2022-11-20T11:46:40;2.10;;;1.90;;
3589;SDS011;1809;48.470;9.226;2022-11-20T11:51:30;1.30;;;0.90;;
3589;SDS011;1809;48.470;9.226;2022-11-20T11:54:00;1.40;;;1.40;;
3589;SDS011;1809;48.470;9.226;2022-11-20T11:56:28;1.30;;;1.00;;
3589;SDS011;1809;48.470;9.226;2022-11-20T11:58:55;1.00;;;1.00;;
3589;SDS011;1809;48.470;9.226;2022-11-20T12:04:04;0.87;;;0.87;;
3589;SDS011;1809;48.470;9.226;2022-11-20T12:06:37;1.90;;;1.37;;
3589;SDS011;1809;48.470;9.226;2022-11-20T12:09:10;1.27;;;1.27;;
3589;SDS011;1809;48.470;9.226;2022-11-20T12:11:49;1.63;;;1.53;;
3589;SDS011;1809;48.470;9.226;2022-11-20T12:14:35;1.33;;;1.20;;
3589;SDS011;1809;48.470;9.226;2022-11-20T12:17:03;1.37;;;1.07;;
3589;SDS011;1809;48.470;9.226;2022-11-20T12:19:29;2.73;;;0.97;;
3589;SDS011;1809;48.470;9.226;2022-11-20T12:30:19;1.30;;;1.30;;
3589;SDS011;1809;48.470;9.226;2022-11-20T12:43:25;1.57;;;1.47;;
3589;SDS011;1809;48.470;9.226;2022-11-20T12:46:30;1.83;;;1.73;;
3589;SDS011;1809;48.470;9.226;2022-11-20T12:56:51;3.50;;;2.57;;
3589;SDS011;1809;48.470;9.226;2022-11-20T12:59:33;4.70;;;1.23;;
3589;SDS011;1809;48.470;9.226;2022-11-20T13:07:21;3.47;;;1.53;;
3589;SDS011;1809;48.470;9.226;2022-11-20T13:09:48;1.30;;;1.20;;
3589;SDS011;1809;48.470;9.226;2022-11-20T13:17:36;1.50;;;1.40;;
3589;SDS011;1809;48.470;9.226;2022-11-20T13:20:05;2.07;;;1.60;;
3589;SDS011;1809;48.470;9.226;2022-11-20T13:25:21;1.93;;;1.47;;
3589;SDS011;1809;48.470;9.226;2022-11-20T13:27:51;2.63;;;1.77;;
3589;SDS011;1809;48.470;9.226;2022-11-20T13:30:27;2.93;;;1.20;;
3589;SDS011;1809;48.470;9.226;2022-11-20T13:32:54;6.83;;;1.50;;
3589;SDS011;1809;48.470;9.226;2022-11-20T13:35:25;0.83;;;0.83;;
3589;SDS011;1809;48.470;9.226;2022-11-20T13:38:14;5.17;;;1.40;;
3589;SDS011;1809;48.470;9.226;2022-11-20T13:45:58;2.17;;;2.03;;
3589;SDS011;1809;48.470;9.226;2022-11-20T13:56:58;2.30;;;1.20;;
3589;SDS011;1809;48.470;9.226;2022-11-20T14:02:18;1.10;;;1.00;;
3589;SDS011;1809;48.470;9.226;2022-11-20T14:04:46;1.83;;;1.00;;
3589;SDS011;1809;48.470;9.226;2022-11-20T14:07:16;0.83;;;0.83;;
3589;SDS011;1809;48.470;9.226;2022-11-20T14:09:52;3.10;;;1.00;;
3589;SDS011;1809;48.470;9.226;2022-11-20T14:12:27;1.43;;;1.27;;
3589;SDS011;1809;48.470;9.226;2022-11-20T14:14:54;1.87;;;1.53;;
3589;SDS011;1809;48.470;9.226;2022-11-20T14:17:21;3.33;;;2.17;;
3589;SDS011;1809;48.470;9.226;2022-11-20T14:19:50;1.33;;;1.23;;
3589;SDS011;1809;48.470;9.226;2022-11-20T14:22:24;1.73;;;1.63;;
3589;SDS011;1809;48.470;9.226;2022-11-20T14:27:39;1.43;;;1.33;;
3589;SDS011;1809;48.470;9.226;2022-11-20T14:30:14;1.20;;;1.17;;
3589;SDS011;1809;48.470;9.226;2022-11-20T14:32:41;1.70;;;0.67;;
3589;SDS011;1809;48.470;9.226;2022-11-20T14:35:09;1.30;;;1.20;;
3589;SDS011;1809;48.470;9.226;2022-11-20T14:37:49;1.70;;;1.60;;
3589;SDS011;1809;48.470;9.226;2022-11-20T14:42:55;2.57;;;2.37;;
3589;SDS011;1809;48.470;9.226;2022-11-20T14:45:22;6.20;;;2.20;;
3589;SDS011;1809;48.470;9.226;2022-11-20T14:47:48;4.57;;;2.33;;
3589;SDS011;1809;48.470;9.226;2022-11-20T14:50:18;7.70;;;4.00;;
3589;SDS011;1809;48.470;9.226;2022-11-20T14:52:59;10.03;;;5.80;;
3589;SDS011;1809;48.470;9.226;2022-11-20T14:55:26;4.00;;;2.30;;
3589;SDS011;1809;48.470;9.226;2022-11-20T14:57:55;1.90;;;1.80;;
3589;SDS011;1809;48.470;9.226;2022-11-20T15:00:22;4.80;;;2.23;;
3589;SDS011;1809;48.470;9.226;2022-11-20T15:02:49;2.03;;;1.40;;
3589;SDS011;1809;48.470;9.226;2022-11-20T15:05:17;2.13;;;2.03;;
3589;SDS011;1809;48.470;9.226;2022-11-20T15:07:45;2.20;;;2.10;;
3589;SDS011;1809;48.470;9.226;2022-11-20T15:13:26;3.10;;;2.87;;
3589;SDS011;1809;48.470;9.226;2022-11-20T15:15:48;2.27;;;2.07;;
3589;SDS011;1809;48.470;9.226;2022-11-20T15:18:16;2.13;;;1.90;;
3589;SDS011;1809;48.470;9.226;2022-11-20T15:20:45;3.07;;;2.00;;
3589;SDS011;1809;48.470;9.226;2022-11-20T15:23:12;7.70;;;4.83;;
3589;SDS011;1809;48.470;9.226;2022-11-20T15:25:39;7.97;;;4.63;;
3589;SDS011;1809;48.470;9.226;2022-11-20T15:28:22;5.40;;;3.03;;
3589;SDS011;1809;48.470;9.226;2022-11-20T15:30:55;4.87;;;3.40;;
3589;SDS011;1809;48.470;9.226;2022-11-20T15:33:23;9.87;;;4.37;;
3589;SDS011;1809;48.470;9.226;2022-11-20T15:35:49;3.43;;;3.07;;
3589;SDS011;1809;48.470;9.226;2022-11-20T15:38:14;4.37;;;3.97;;
3589;SDS011;1809;48.470;9.226;2022-11-20T15:40:39;3.10;;;2.90;;
3589;SDS011;1809;48.470;9.226;2022-11-20T15:43:05;7.53;;;4.40;;
3589;SDS011;1809;48.470;9.226;2022-11-20T15:45:39;3.53;;;2.30;;
3589;SDS011;1809;48.470;9.226;2022-11-20T15:48:04;1.87;;;1.77;;
3589;SDS011;1809;48.470;9.226;2022-11-20T15:50:36;2.47;;;2.30;;
3589;SDS011;1809;48.470;9.226;2022-11-20T15:53:03;2.70;;;2.07;;
3589;SDS011;1809;48.470;9.226;2022-11-20T15:55:28;1.83;;;1.70;;
3589;SDS011;1809;48.470;9.226;2022-11-20T15:57:54;8.10;;;3.10;;
3589;SDS011;1809;48.470;9.226;2022-11-20T16:00:20;6.97;;;5.07;;
3589;SDS011;1809;48.470;9.226;2022-11-20T16:02:45;10.40;;;6.40;;
3589;SDS011;1809;48.470;9.226;2022-11-20T16:05:11;7.00;;;3.60;;
3589;SDS011;1809;48.470;9.226;2022-11-20T16:07:38;1.97;;;1.83;;
3589;SDS011;1809;48.470;9.226;2022-11-20T16:10:04;4.10;;;1.70;;
3589;SDS011;1809;48.470;9.226;2022-11-20T16:12:29;1.43;;;1.40;;
3589;SDS011;1809;48.470;9.226;2022-11-20T16:15:13;3.20;;;1.53;;
3589;SDS011;1809;48.470;9.226;2022-11-20T16:17:57;2.63;;;2.40;;
3589;SDS011;1809;48.470;9.226;2022-11-20T16:20:22;2.10;;;2.00;;
3589;SDS011;1809;48.470;9.226;2022-11-20T16:22:48;2.90;;;1.97;;
3589;SDS011;1809;48.470;9.226;2022-11-20T16:25:13;2.93;;;2.73;;
3589;SDS011;1809;48.470;9.226;2022-11-20T16:27:38;2.50;;;2.30;;
3589;SDS011;1809;48.470;9.226;2022-11-20T16:30:04;2.47;;;2.37;;
3589;SDS011;1809;48.470;9.226;2022-11-20T16:32:30;2.77;;;1.80;;
3589;SDS011;1809;48.470;9.226;2022-11-20T16:34:55;2.17;;;1.37;;
3589;SDS011;1809;48.470;9.226;2022-11-20T16:37:21;5.87;;;2.60;;
3589;SDS011;1809;48.470;9.226;2022-11-20T16:39:46;2.23;;;2.07;;
3589;SDS011;1809;48.470;9.226;2022-11-20T16:42:11;3.53;;;2.87;;
3589;SDS011;1809;48.470;9.226;2022-11-20T16:44:37;1.50;;;1.40;;
3589;SDS011;1809;48.470;9.226;2022-11-20T16:47:02;1.93;;;1.83;;
3589;SDS011;1809;48.470;9.226;2022-11-20T16:49:28;2.13;;;1.93;;
3589;SDS011;1809;48.470;9.226;2022-11-20T16:51:53;0.97;;;0.90;;
3589;SDS011;1809;48.470;9.226;2022-11-20T16:54:18;1.27;;;1.17;;
3589;SDS011;1809;48.470;9.226;2022-11-20T16:56:43;2.03;;;1.70;;
3589;SDS011;1809;48.470;9.226;2022-11-20T16:59:12;2.20;;;1.90;;
3589;SDS011;1809;48.470;9.226;2022-11-20T17:01:37;2.67;;;2.40;;
3589;SDS011;1809;48.470;9.226;2022-11-20T17:04:05;3.07;;;2.47;;
3589;SDS011;1809;48.470;9.226;2022-11-20T17:06:32;6.10;;;2.20;;
3589;SDS011;1809;48.470;9.226;2022-11-20T17:08:59;2.63;;;2.30;;
3589;SDS011;1809;48.470;9.226;2022-11-20T17:11:25;2.50;;;2.30;;
3589;SDS011;1809;48.470;9.226;2022-11-20T17:13:51;5.97;;;3.80;;
3589;SDS011;1809;48.470;9.226;2022-11-20T17:16:20;3.63;;;3.33;;